Time;durP1;ratioP1;P1;durP2;ratioP2;P2;SDS_P1;SDS_P2;PMS_P1;PMS_P2;Temp;Humidity;BMP_temperature;BMP_pressure;BME280_temperature;BME280_humidity;BME280_pressure;Samples;Min_cycle;Max_cycle;Signal;HPM_P1;HPM_P2
2023/09/24 00:02:19;;;;;;;39.60;18.50;;;36.40;29.60;;;;;;5070639;28;20022;-59
2023/09/24 00:04:46;;;;;;;21.77;16.77;;;36.40;30.40;;;;;;5071216;28;20096;-58
2023/09/24 00:07:14;;;;;;;29.85;18.05;;;36.40;30.60;;;;;;5075857;28;20012;-55
2023/09/24 00:09:41;;;;;;;6.85;3.00;;;36.40;29.80;;;;;;5071917;28;20016;-60
2023/09/24 00:12:07;;;;;;;9.63;3.03;;;36.30;30.20;;;;;;5073136;28;20012;-59
2023/09/24 00:14:33;;;;;;;12.55;2.85;;;36.30;30.60;;;;;;5074750;28;20063;-56
2023/09/24 00:17:00;;;;;;;10.23;3.13;;;36.20;30.20;;;;;;5073499;28;20051;-59
2023/09/24 00:19:27;;;;;;;7.30;2.72;;;36.20;29.70;;;;;;5066720;28;20418;-64
2023/09/24 00:21:53;;;;;;;5.85;2.47;;;36.20;29.70;;;;;;5070682;28;20091;-62
2023/09/24 00:24:20;;;;;;;12.25;2.45;;;36.10;29.30;;;;;;5070555;28;20485;-63
2023/09/24 00:26:47;;;;;;;6.80;2.78;;;36.00;29.60;;;;;;5074614;28;20020;-62
2023/09/24 00:29:14;;;;;;;12.85;2.55;;;36.00;30.60;;;;;;5075570;28;20472;-62
2023/09/24 00:31:40;;;;;;;7.18;2.90;;;36.00;31.10;;;;;;5068444;28;20103;-63
2023/09/24 00:34:07;;;;;;;5.00;2.75;;;35.90;31.10;;;;;;5071211;28;20035;-62
2023/09/24 00:36:33;;;;;;;11.95;3.42;;;35.90;30.50;;;;;;5069053;28;20032;-59
2023/09/24 00:39:01;;;;;;;10.85;2.40;;;35.90;30.30;;;;;;5076437;28;20100;-59
2023/09/24 00:41:28;;;;;;;4.05;2.42;;;35.80;30.90;;;;;;5073571;28;20012;-56
2023/09/24 00:43:54;;;;;;;6.47;2.33;;;35.70;30.60;;;;;;5067484;28;20016;-59
2023/09/24 00:46:23;;;;;;;4.68;2.58;;;35.70;30.70;;;;;;5072100;28;20543;-57
2023/09/24 00:48:52;;;;;;;9.80;2.42;;;35.60;30.50;;;;;;5074373;28;20027;-58
2023/09/24 00:51:22;;;;;;;5.70;2.47;;;35.60;31.40;;;;;;5069921;28;20016;-61
2023/09/24 00:53:51;;;;;;;7.53;2.30;;;35.50;31.30;;;;;;5074050;28;20028;-60
2023/09/24 00:56:18;;;;;;;5.07;2.20;;;35.40;31.40;;;;;;5070906;28;20120;-59
2023/09/24 00:58:50;;;;;;;11.13;3.05;;;35.40;31.10;;;;;;5071993;28;20050;-63
2023/09/24 01:01:17;;;;;;;5.93;3.20;;;35.30;31.40;;;;;;5072902;28;20049;-60
2023/09/24 01:03:46;;;;;;;12.82;3.15;;;35.20;31.90;;;;;;5068821;28;20082;-61
2023/09/24 01:06:13;;;;;;;10.68;2.47;;;35.20;31.90;;;;;;5075305;28;20016;-58
2023/09/24 01:08:39;;;;;;;12.80;3.88;;;35.10;31.50;;;;;;5068345;28;20024;-56
2023/09/24 01:11:06;;;;;;;6.72;3.50;;;35.00;31.60;;;;;;5080361;28;20536;-57
2023/09/24 01:13:43;;;;;;;15.85;4.57;;;35.00;31.70;;;;;;5070139;28;20411;-58
2023/09/24 01:16:11;;;;;;;9.07;4.28;;;34.90;32.10;;;;;;5068335;28;20028;-57
2023/09/24 01:18:41;;;;;;;10.15;3.53;;;34.90;31.90;;;;;;5074153;28;20008;-58
2023/09/24 01:21:12;;;;;;;14.77;3.60;;;34.80;32.00;;;;;;5071144;28;20017;-61
2023/09/24 01:23:45;;;;;;;12.13;3.70;;;34.70;32.00;;;;;;5069616;28;20024;-59
2023/09/24 01:26:16;;;;;;;10.77;3.38;;;34.70;31.50;;;;;;5077262;28;20487;-58
2023/09/24 01:28:43;;;;;;;13.00;3.38;;;34.60;31.30;;;;;;5069386;28;20500;-58
2023/09/24 01:31:09;;;;;;;6.35;3.22;;;34.50;31.40;;;;;;5071766;28;20028;-60
2023/09/24 01:33:38;;;;;;;11.00;3.33;;;34.50;31.40;;;;;;5083508;28;20019;-58
2023/09/24 01:36:05;;;;;;;12.77;3.28;;;34.40;31.40;;;;;;5062199;28;20564;-57
2023/09/24 01:38:32;;;;;;;8.82;3.55;;;34.30;31.70;;;;;;5068295;28;20108;-58
2023/09/24 01:41:00;;;;;;;8.90;3.35;;;34.30;31.50;;;;;;5075333;28;20380;-58
2023/09/24 01:43:27;;;;;;;9.02;3.17;;;34.20;31.40;;;;;;5069052;28;20045;-62
2023/09/24 01:45:54;;;;;;;8.10;3.17;;;34.10;30.90;;;;;;5067043;28;20009;-60
2023/09/24 01:48:21;;;;;;;16.60;3.50;;;34.10;31.10;;;;;;5073185;28;20079;-62
2023/09/24 01:50:48;;;;;;;14.07;3.40;;;34.00;31.10;;;;;;5071754;28;20016;-58
2023/09/24 01:53:14;;;;;;;14.88;3.60;;;33.90;31.20;;;;;;5064822;28;20016;-58
2023/09/24 01:55:41;;;;;;;8.65;3.30;;;33.90;31.20;;;;;;5072046;28;20035;-61
2023/09/24 01:58:08;;;;;;;8.82;3.15;;;33.80;31.00;;;;;;5066587;28;20047;-61
2023/09/24 02:00:37;;;;;;;7.45;3.35;;;33.70;31.10;;;;;;5055716;28;20008;-57
2023/09/24 02:03:07;;;;;;;11.30;3.38;;;33.70;31.20;;;;;;5074593;28;20036;-60
2023/09/24 02:05:35;;;;;;;10.82;3.40;;;33.60;31.50;;;;;;5066512;28;20037;-59
2023/09/24 02:08:08;;;;;;;10.15;2.83;;;33.50;31.70;;;;;;5075384;28;20024;-57
2023/09/24 02:10:35;;;;;;;13.43;3.45;;;33.50;32.00;;;;;;5049140;28;20501;-60
2023/09/24 02:13:03;;;;;;;6.75;3.80;;;33.50;32.40;;;;;;5067366;28;20483;-60
2023/09/24 02:15:29;;;;;;;8.98;3.42;;;33.40;32.80;;;;;;5077917;28;20046;-57
2023/09/24 02:17:56;;;;;;;15.52;3.97;;;33.30;33.20;;;;;;5083297;28;20040;-59
2023/09/24 02:22:52;;;;;;;9.73;4.07;;;33.20;33.50;;;;;;5073442;28;20013;-59
2023/09/24 02:25:21;;;;;;;7.40;3.70;;;33.10;33.80;;;;;;5073323;28;20017;-61
2023/09/24 02:27:50;;;;;;;8.80;4.00;;;33.00;33.70;;;;;;5071652;28;20012;-64
2023/09/24 02:30:18;;;;;;;6.18;4.10;;;32.90;34.00;;;;;;5068766;28;20485;-63
2023/09/24 02:32:45;;;;;;;12.70;4.35;;;32.90;34.20;;;;;;5074760;28;20051;-64
2023/09/24 02:35:13;;;;;;;6.57;3.97;;;32.80;34.50;;;;;;5068983;28;20063;-63
2023/09/24 02:37:44;;;;;;;10.13;3.75;;;32.70;34.70;;;;;;5070263;28;20021;-65
2023/09/24 02:40:19;;;;;;;10.65;4.55;;;32.80;35.00;;;;;;5073557;28;20095;-63
2023/09/24 02:42:47;;;;;;;9.50;3.90;;;32.60;35.20;;;;;;5071194;28;20107;-62
2023/09/24 02:45:18;;;;;;;7.53;4.47;;;32.50;35.50;;;;;;5076743;28;20016;-62
2023/09/24 02:47:45;;;;;;;9.25;3.35;;;32.50;35.80;;;;;;5078641;28;20419;-63
2023/09/24 02:50:15;;;;;;;9.32;3.65;;;32.50;36.10;;;;;;5079795;28;20032;-65
2023/09/24 02:52:42;;;;;;;6.03;3.50;;;32.40;36.20;;;;;;5072255;28;20024;-64
2023/09/24 02:55:12;;;;;;;12.73;4.47;;;32.30;36.60;;;;;;5073430;28;20028;-63
2023/09/24 02:57:43;;;;;;;8.65;4.25;;;32.30;36.70;;;;;;5074299;28;20001;-63
2023/09/24 03:00:27;;;;;;;6.97;3.60;;;32.30;37.00;;;;;;5071584;28;20019;-54
2023/09/24 03:03:00;;;;;;;5.72;3.85;;;32.30;37.40;;;;;;5077122;28;20047;-57
2023/09/24 03:05:28;;;;;;;10.98;3.75;;;32.10;37.80;;;;;;5074762;28;20027;-66
2023/09/24 03:07:57;;;;;;;13.43;4.47;;;32.10;38.00;;;;;;5071307;28;20016;-63
2023/09/24 03:10:24;;;;;;;10.32;4.20;;;32.00;38.20;;;;;;5081810;28;20332;-60
2023/09/24 03:12:51;;;;;;;9.43;4.65;;;32.00;38.30;;;;;;5070403;28;20079;-63
2023/09/24 03:15:17;;;;;;;8.82;4.60;;;31.90;38.60;;;;;;5074879;28;20021;-62
2023/09/24 03:17:47;;;;;;;10.07;4.05;;;31.90;38.80;;;;;;5074280;28;20039;-63
2023/09/24 03:20:17;;;;;;;5.45;3.42;;;31.80;38.90;;;;;;5076668;28;20594;-67
2023/09/24 03:22:55;;;;;;;8.65;4.55;;;31.80;39.30;;;;;;5075256;28;20503;-61
2023/09/24 03:25:23;;;;;;;14.63;4.50;;;31.80;39.30;;;;;;5072624;28;20016;-62
2023/09/24 03:27:55;;;;;;;8.23;4.47;;;31.70;39.60;;;;;;5068237;28;20021;-60
2023/09/24 03:30:22;;;;;;;6.18;4.13;;;31.70;39.80;;;;;;5069358;28;20020;-60
2023/09/24 03:32:51;;;;;;;7.65;4.20;;;31.60;40.20;;;;;;5081801;28;20065;-55
2023/09/24 03:35:26;;;;;;;16.90;4.30;;;31.50;40.80;;;;;;5068951;28;20016;-59
2023/09/24 03:37:54;;;;;;;11.25;5.05;;;31.40;41.20;;;;;;5073118;28;20500;-62
2023/09/24 03:40:22;;;;;;;10.18;5.18;;;31.30;41.70;;;;;;5068246;28;20021;-59
2023/09/24 03:42:48;;;;;;;15.13;5.85;;;31.20;42.10;;;;;;5073774;28;20027;-59
2023/09/24 03:45:16;;;;;;;12.10;5.30;;;31.20;42.40;;;;;;5076440;28;20017;-62
2023/09/24 03:47:45;;;;;;;13.65;4.60;;;31.10;42.60;;;;;;5076584;28;20024;-60
2023/09/24 03:50:17;;;;;;;11.75;4.10;;;31.10;42.80;;;;;;5074172;28;20019;-59
2023/09/24 03:52:45;;;;;;;12.90;4.82;;;31.00;42.90;;;;;;5070268;28;20024;-61
2023/09/24 03:55:11;;;;;;;11.75;4.53;;;31.00;43.00;;;;;;5072923;28;20032;-55
2023/09/24 03:57:39;;;;;;;12.70;4.93;;;31.00;43.00;;;;;;5078373;28;20694;-62
2023/09/24 04:00:18;;;;;;;13.75;4.72;;;30.90;43.00;;;;;;5067552;28;20259;-62
2023/09/24 04:02:48;;;;;;;16.23;5.53;;;30.80;42.60;;;;;;5081840;28;20530;-59
2023/09/24 04:05:18;;;;;;;9.85;5.18;;;30.80;42.70;;;;;;5076192;28;20070;-59
2023/09/24 04:07:49;;;;;;;11.13;4.25;;;30.80;42.70;;;;;;5080599;28;20066;-56
2023/09/24 04:10:17;;;;;;;8.43;4.68;;;30.80;43.50;;;;;;5074521;28;20472;-60
2023/09/24 04:12:49;;;;;;;16.65;5.80;;;30.70;42.90;;;;;;5064164;28;20034;-64
2023/09/24 04:15:18;;;;;;;23.63;6.47;;;30.70;43.10;;;;;;5071964;28;20485;-63
2023/09/24 04:17:50;;;;;;;13.73;6.28;;;30.60;43.10;;;;;;5077111;28;20011;-61
2023/09/24 04:20:17;;;;;;;11.30;5.45;;;30.50;43.10;;;;;;5069592;28;20480;-62
2023/09/24 04:22:44;;;;;;;15.65;4.97;;;30.50;43.50;;;;;;5071573;28;20071;-64
2023/09/24 04:25:14;;;;;;;11.43;4.68;;;30.50;43.50;;;;;;5072402;28;20024;-62
2023/09/24 04:27:42;;;;;;;12.10;4.40;;;30.40;43.30;;;;;;5068122;28;20095;-61
2023/09/24 04:30:15;;;;;;;11.30;4.45;;;30.40;43.60;;;;;;5069366;28;20073;-61
2023/09/24 04:32:42;;;;;;;9.18;4.65;;;30.30;43.90;;;;;;5075668;28;20372;-61
2023/09/24 04:35:11;;;;;;;14.68;5.18;;;30.30;43.90;;;;;;5075674;28;20059;-62
2023/09/24 04:37:41;;;;;;;13.80;4.90;;;30.30;44.10;;;;;;5071401;28;20485;-60
2023/09/24 04:40:11;;;;;;;9.43;4.70;;;30.20;44.20;;;;;;5068647;28;20773;-58
2023/09/24 04:42:38;;;;;;;7.78;3.85;;;30.10;44.40;;;;;;5073697;28;20016;-58
2023/09/24 04:45:06;;;;;;;12.90;4.32;;;30.10;44.60;;;;;;5075227;28;20012;-58
2023/09/24 04:47:32;;;;;;;11.13;5.05;;;30.10;44.70;;;;;;5074711;28;20028;-60
2023/09/24 04:49:59;;;;;;;15.73;5.32;;;30.10;44.70;;;;;;5068229;28;20047;-60
2023/09/24 04:52:25;;;;;;;16.25;5.80;;;30.10;44.60;;;;;;5068036;28;20016;-60
2023/09/24 04:54:53;;;;;;;12.43;4.90;;;30.00;44.60;;;;;;5069541;28;20472;-57
2023/09/24 04:57:19;;;;;;;9.00;4.28;;;30.00;44.50;;;;;;5074563;28;20397;-60
2023/09/24 04:59:47;;;;;;;14.25;4.13;;;30.00;44.50;;;;;;5076295;28;20464;-60
2023/09/24 05:02:13;;;;;;;11.23;4.40;;;30.00;44.60;;;;;;5077117;28;20421;-61
2023/09/24 05:04:40;;;;;;;10.10;4.50;;;29.90;44.70;;;;;;5066965;28;20012;-60
2023/09/24 05:07:06;;;;;;;14.77;4.80;;;30.00;45.10;;;;;;5066204;28;20033;-60
2023/09/24 05:09:32;;;;;;;6.32;3.83;;;29.90;45.40;;;;;;5075839;28;20016;-56
2023/09/24 05:11:59;;;;;;;8.73;3.47;;;29.90;45.30;;;;;;5067483;28;20016;-58
2023/09/24 05:14:26;;;;;;;10.98;3.85;;;29.90;45.50;;;;;;5070556;28;20028;-60
2023/09/24 05:16:53;;;;;;;7.90;3.65;;;29.90;45.60;;;;;;5066861;28;20052;-61
2023/09/24 05:19:19;;;;;;;6.05;3.22;;;29.90;45.40;;;;;;5071789;28;20029;-58
2023/09/24 05:21:46;;;;;;;9.43;3.88;;;29.90;45.50;;;;;;5071781;28;20024;-58
2023/09/24 05:24:13;;;;;;;12.30;4.60;;;29.80;45.80;;;;;;5072919;28;20009;-59
2023/09/24 05:26:40;;;;;;;16.63;5.35;;;29.80;45.80;;;;;;5074382;28;20425;-61
2023/09/24 05:29:06;;;;;;;13.82;5.43;;;29.80;45.80;;;;;;5074495;28;20028;-59
2023/09/24 05:31:33;;;;;;;15.23;6.93;;;29.70;45.80;;;;;;5068790;28;20024;-58
2023/09/24 05:33:59;;;;;;;20.35;5.78;;;29.70;46.10;;;;;;5065847;28;20012;-58
2023/09/24 05:36:26;;;;;;;16.30;5.03;;;29.70;46.20;;;;;;5075460;28;20055;-62
2023/09/24 05:38:53;;;;;;;9.85;5.03;;;29.60;46.20;;;;;;5069396;28;20027;-61
2023/09/24 05:41:20;;;;;;;32.95;17.15;;;29.60;46.30;;;;;;5075371;28;20072;-60
2023/09/24 05:43:47;;;;;;;14.40;5.65;;;29.60;46.60;;;;;;5071970;28;20511;-59
2023/09/24 05:46:16;;;;;;;10.52;6.57;;;29.60;46.40;;;;;;5070875;28;20424;-62
2023/09/24 05:48:44;;;;;;;11.80;5.20;;;29.60;46.60;;;;;;5083474;28;20055;-61
2023/09/24 05:51:10;;;;;;;11.82;5.10;;;29.50;46.60;;;;;;5075610;28;20068;-64
2023/09/24 05:53:37;;;;;;;11.93;6.18;;;29.40;46.70;;;;;;5076278;28;20056;-61
2023/09/24 05:56:04;;;;;;;14.93;5.57;;;29.40;46.60;;;;;;5071356;28;20053;-59
2023/09/24 05:58:30;;;;;;;10.27;5.82;;;29.40;46.60;;;;;;5077129;28;20153;-60
2023/09/24 06:00:57;;;;;;;15.52;5.70;;;29.40;46.60;;;;;;5075555;28;20041;-62
2023/09/24 06:03:23;;;;;;;11.25;4.90;;;29.30;47.40;;;;;;5075300;28;20119;-60
2023/09/24 06:05:50;;;;;;;12.43;4.80;;;29.30;46.70;;;;;;5073984;28;20061;-62
2023/09/24 06:08:17;;;;;;;7.35;4.40;;;29.30;46.90;;;;;;5070352;28;20053;-59
2023/09/24 06:10:44;;;;;;;11.55;5.07;;;29.20;46.90;;;;;;5086228;28;20608;-59
2023/09/24 06:13:14;;;;;;;12.73;5.53;;;29.20;46.90;;;;;;5071917;28;20058;-60
2023/09/24 06:15:41;;;;;;;13.95;5.18;;;29.20;46.70;;;;;;5073273;28;20164;-60
2023/09/24 06:18:08;;;;;;;12.23;4.85;;;29.20;46.60;;;;;;5077138;28;20040;-61
2023/09/24 06:20:43;;;;;;;9.15;4.68;;;29.10;47.20;;;;;;5073687;28;20045;-57
2023/09/24 06:23:10;;;;;;;12.63;5.40;;;29.10;47.00;;;;;;5074831;28;20053;-62
2023/09/24 06:25:37;;;;;;;15.63;5.32;;;29.00;47.10;;;;;;5072846;28;20152;-60
2023/09/24 06:28:08;;;;;;;12.13;5.10;;;28.90;47.10;;;;;;5068572;28;20061;-65
2023/09/24 06:30:38;;;;;;;12.05;5.57;;;28.90;47.20;;;;;;5077459;28;20072;-62
2023/09/24 06:33:08;;;;;;;28.98;5.70;;;28.90;47.50;;;;;;5073452;28;20062;-60
2023/09/24 06:35:38;;;;;;;12.95;5.05;;;28.90;47.50;;;;;;5075568;28;20070;-59
2023/09/24 06:38:05;;;;;;;20.02;5.57;;;28.80;48.00;;;;;;5063439;28;20047;-59
2023/09/24 06:40:32;;;;;;;20.83;5.68;;;28.70;48.10;;;;;;5066202;28;20145;-60
2023/09/24 06:42:58;;;;;;;12.75;5.25;;;28.70;48.50;;;;;;5071120;28;20045;-64
2023/09/24 06:45:25;;;;;;;15.73;5.68;;;28.70;48.20;;;;;;5069026;28;20107;-54
2023/09/24 06:47:51;;;;;;;14.98;5.80;;;28.70;47.80;;;;;;5071665;28;20021;-58
2023/09/24 06:50:17;;;;;;;16.38;6.32;;;28.60;47.90;;;;;;5068937;28;20017;-59
2023/09/24 06:52:44;;;;;;;16.10;7.28;;;28.50;48.00;;;;;;5066851;28;20149;-57
2023/09/24 06:55:10;;;;;;;15.23;6.03;;;28.50;48.80;;;;;;5066458;28;20017;-64
2023/09/24 06:57:37;;;;;;;15.25;7.15;;;28.40;48.10;;;;;;5049566;28;20023;-61
2023/09/24 07:00:04;;;;;;;18.38;9.90;;;28.40;48.20;;;;;;5068429;28;20369;-60
2023/09/24 07:02:31;;;;;;;15.32;8.32;;;28.40;48.50;;;;;;5069127;28;20032;-60
2023/09/24 07:04:58;;;;;;;21.83;12.77;;;28.30;48.30;;;;;;5068223;28;20016;-61
2023/09/24 07:07:25;;;;;;;33.25;21.95;;;28.30;48.90;;;;;;5070191;28;20020;-60
2023/09/24 07:09:51;;;;;;;18.60;12.05;;;28.30;48.70;;;;;;5069291;28;20614;-58
2023/09/24 07:12:18;;;;;;;18.30;9.20;;;28.20;49.00;;;;;;5070116;28;20008;-61
2023/09/24 07:14:44;;;;;;;16.75;7.13;;;28.10;49.50;;;;;;5048263;28;20043;-63
2023/09/24 07:17:11;;;;;;;16.63;5.57;;;28.10;49.80;;;;;;5072753;28;20131;-61
2023/09/24 07:19:37;;;;;;;18.70;5.13;;;28.10;49.80;;;;;;5068775;28;20080;-59
2023/09/24 07:22:04;;;;;;;6.85;4.38;;;28.00;49.70;;;;;;5069338;28;20020;-58
2023/09/24 07:24:30;;;;;;;12.48;5.18;;;28.00;49.70;;;;;;5066993;28;20523;-62
2023/09/24 07:27:02;;;;;;;13.27;4.72;;;27.90;50.00;;;;;;5069968;28;20046;-59
2023/09/24 07:29:30;;;;;;;11.43;4.75;;;27.90;50.20;;;;;;5071315;28;20020;-59
2023/09/24 07:31:57;;;;;;;11.50;4.70;;;27.90;50.70;;;;;;5051136;28;20349;-59
2023/09/24 07:34:24;;;;;;;11.80;4.60;;;27.80;50.80;;;;;;5069052;28;20028;-60
2023/09/24 07:36:51;;;;;;;15.27;4.50;;;27.70;50.40;;;;;;5066543;28;20162;-59
2023/09/24 07:39:17;;;;;;;9.50;4.32;;;27.70;50.90;;;;;;5067491;28;20459;-59
2023/09/24 07:41:44;;;;;;;13.27;3.83;;;27.70;51.20;;;;;;5051845;28;20046;-61
2023/09/24 07:44:10;;;;;;;13.00;3.70;;;27.60;50.60;;;;;;5065990;28;20485;-59
2023/09/24 07:46:36;;;;;;;11.13;3.65;;;27.60;49.70;;;;;;5070145;28;20021;-57
2023/09/24 07:49:05;;;;;;;10.88;3.67;;;27.60;49.80;;;;;;5068624;28;20025;-62
2023/09/24 07:51:32;;;;;;;11.07;3.60;;;27.50;50.70;;;;;;5067957;28;20055;-60
2023/09/24 07:53:58;;;;;;;8.70;3.40;;;27.50;50.20;;;;;;5063634;28;20125;-59
2023/09/24 07:56:24;;;;;;;12.85;3.88;;;27.40;50.50;;;;;;5066698;28;20104;-57
2023/09/24 07:58:52;;;;;;;11.32;3.70;;;27.30;50.80;;;;;;5064840;28;20479;-61
2023/09/24 08:01:21;;;;;;;15.57;4.07;;;27.30;50.70;;;;;;5065178;28;20024;-57
2023/09/24 08:03:49;;;;;;;9.45;3.20;;;27.20;50.50;;;;;;5067990;28;20029;-62
2023/09/24 08:06:16;;;;;;;10.85;3.38;;;27.30;50.30;;;;;;5063593;28;20054;-61
2023/09/24 08:08:42;;;;;;;9.80;3.67;;;27.20;49.60;;;;;;5068495;28;20078;-60
2023/09/24 08:11:09;;;;;;;11.20;3.60;;;27.20;49.80;;;;;;5070097;28;20053;-59
2023/09/24 08:13:35;;;;;;;11.73;3.30;;;27.20;50.00;;;;;;5063721;28;20044;-59
2023/09/24 08:16:02;;;;;;;10.88;3.33;;;27.20;50.00;;;;;;5067079;28;20541;-58
2023/09/24 08:18:29;;;;;;;9.93;3.40;;;27.20;50.10;;;;;;5068351;28;20101;-61
2023/09/24 08:20:55;;;;;;;6.60;3.20;;;27.10;50.10;;;;;;5064640;28;20057;-59
2023/09/24 08:23:23;;;;;;;9.77;2.95;;;27.10;49.90;;;;;;5068269;28;20042;-57
2023/09/24 08:25:51;;;;;;;6.95;2.88;;;27.00;50.20;;;;;;5065683;28;20052;-57
2023/09/24 08:28:18;;;;;;;8.43;3.20;;;27.00;50.10;;;;;;5065117;28;20074;-60
2023/09/24 08:30:45;;;;;;;7.03;2.78;;;27.00;50.10;;;;;;5065461;28;20047;-55
2023/09/24 08:33:12;;;;;;;9.80;2.95;;;27.00;50.70;;;;;;5066771;28;20074;-61
2023/09/24 08:35:39;;;;;;;7.07;2.72;;;27.00;50.30;;;;;;5063993;28;20061;-60
2023/09/24 08:38:07;;;;;;;8.00;3.00;;;27.00;50.60;;;;;;5067362;28;20100;-61
2023/09/24 08:40:33;;;;;;;5.60;2.63;;;26.90;50.60;;;;;;5069572;28;20047;-58
2023/09/24 08:43:03;;;;;;;8.23;2.72;;;26.90;51.10;;;;;;5066555;28;20191;-59
2023/09/24 08:45:31;;;;;;;7.72;3.08;;;26.80;51.00;;;;;;5062135;28;20432;-59
2023/09/24 08:48:00;;;;;;;6.65;3.03;;;26.90;51.10;;;;;;5070794;28;20133;-57
2023/09/24 08:50:27;;;;;;;8.18;3.00;;;26.80;51.50;;;;;;5066493;28;20545;-60
2023/09/24 08:52:54;;;;;;;10.90;3.03;;;26.80;51.70;;;;;;5063705;28;20077;-62
2023/09/24 08:55:21;;;;;;;7.85;2.75;;;26.80;51.90;;;;;;5063135;28;20059;-58
2023/09/24 08:57:47;;;;;;;9.77;3.10;;;26.80;52.10;;;;;;5068003;28;20071;-60
2023/09/24 09:00:15;;;;;;;5.55;3.10;;;26.80;52.10;;;;;;5065529;28;20404;-58
2023/09/24 09:02:44;;;;;;;13.27;3.40;;;26.70;52.60;;;;;;5067483;28;20559;-58
2023/09/24 09:05:21;;;;;;;16.45;3.67;;;26.70;52.50;;;;;;5064507;28;20047;-58
2023/09/24 09:08:04;;;;;;;8.95;3.17;;;26.70;52.50;;;;;;5064317;28;20101;-60
2023/09/24 09:10:35;;;;;;;6.22;3.10;;;26.70;52.90;;;;;;5071160;28;20047;-62
2023/09/24 09:13:13;;;;;;;7.28;3.10;;;26.70;52.90;;;;;;5069633;28;20517;-61
2023/09/24 09:15:42;;;;;;;10.80;3.30;;;26.70;53.50;;;;;;5065452;28;20098;-60
2023/09/24 09:18:23;;;;;;;7.95;3.85;;;26.60;53.70;;;;;;5070013;28;20552;-63
2023/09/24 09:20:50;;;;;;;8.63;3.47;;;26.50;54.10;;;;;;5068250;28;20049;-62
2023/09/24 09:23:33;;;;;;;7.80;3.80;;;26.70;53.90;;;;;;5065858;28;20046;-61
2023/09/24 09:26:00;;;;;;;8.43;3.50;;;26.90;53.50;;;;;;5064053;28;20077;-61
2023/09/24 09:28:32;;;;;;;6.68;3.20;;;27.20;53.50;;;;;;5065225;28;20048;-62
2023/09/24 09:31:06;;;;;;;8.35;3.00;;;27.40;52.80;;;;;;5064533;28;20376;-61
2023/09/24 09:33:44;;;;;;;7.03;3.55;;;27.50;52.70;;;;;;5066841;28;20547;-61
2023/09/24 09:36:30;;;;;;;9.02;3.65;;;27.60;52.40;;;;;;5068497;28;20021;-61
2023/09/24 09:38:57;;;;;;;14.77;3.70;;;27.80;52.30;;;;;;5065623;28;20008;-59
2023/09/24 09:41:25;;;;;;;19.27;4.00;;;27.90;51.80;;;;;;5065892;28;20046;-62
2023/09/24 09:43:53;;;;;;;8.88;3.60;;;27.80;51.50;;;;;;5062088;28;20403;-60
2023/09/24 09:46:23;;;;;;;5.00;2.88;;;28.00;51.70;;;;;;5064851;28;20028;-60
2023/09/24 09:48:55;;;;;;;8.68;3.45;;;28.10;51.30;;;;;;5072288;28;20040;-60
2023/09/24 09:51:22;;;;;;;7.28;3.28;;;28.20;50.80;;;;;;5071738;28;20036;-60
2023/09/24 09:53:53;;;;;;;8.52;2.92;;;28.10;49.90;;;;;;5063613;28;20081;-61
2023/09/24 09:56:23;;;;;;;17.30;3.85;;;28.00;50.00;;;;;;5062761;28;20504;-62
2023/09/24 09:58:51;;;;;;;6.57;3.53;;;28.00;49.80;;;;;;5067380;28;20025;-60
2023/09/24 10:01:20;;;;;;;6.75;3.10;;;28.20;49.90;;;;;;5067923;28;20346;-61
2023/09/24 10:03:52;;;;;;;10.57;3.63;;;28.20;49.30;;;;;;5069545;28;20127;-61
2023/09/24 10:06:19;;;;;;;7.43;3.55;;;28.10;49.30;;;;;;5066145;28;20495;-61
2023/09/24 10:08:48;;;;;;;10.30;3.78;;;28.00;49.00;;;;;;5063541;28;20400;-59
2023/09/24 10:11:33;;;;;;;9.10;3.63;;;28.00;49.80;;;;;;5067881;28;20075;-62
2023/09/24 10:14:08;;;;;;;11.88;3.50;;;28.00;49.20;;;;;;5065658;28;20099;-60
2023/09/24 10:16:39;;;;;;;9.38;3.15;;;28.00;49.30;;;;;;5063191;28;20073;-61
2023/09/24 10:19:07;;;;;;;8.73;2.97;;;27.90;49.20;;;;;;5056953;28;20008;-60
2023/09/24 10:21:38;;;;;;;9.07;3.45;;;27.90;49.80;;;;;;5060451;28;20039;-61
2023/09/24 10:24:10;;;;;;;5.97;2.90;;;27.80;50.00;;;;;;5056418;28;20134;-61
2023/09/24 10:27:05;;;;;;;7.00;3.15;;;27.80;49.60;;;;;;5060473;28;20013;-60
2023/09/24 10:29:51;;;;;;;5.50;2.97;;;27.70;49.50;;;;;;5058488;28;20021;-62
2023/09/24 10:32:19;;;;;;;9.05;3.40;;;27.60;49.50;;;;;;5059978;28;20073;-61
2023/09/24 10:34:54;;;;;;;8.73;3.40;;;27.60;49.20;;;;;;5059913;28;20050;-61
2023/09/24 10:37:31;;;;;;;11.80;3.35;;;27.50;50.10;;;;;;5067310;28;20085;-62
2023/09/24 10:40:09;;;;;;;13.80;3.65;;;27.40;49.40;;;;;;5067858;28;20023;-63
2023/09/24 10:42:37;;;;;;;7.72;3.35;;;27.30;49.60;;;;;;5069734;28;20588;-62
2023/09/24 10:45:06;;;;;;;10.27;3.20;;;27.30;49.50;;;;;;5069185;28;20056;-60
2023/09/24 10:47:36;;;;;;;7.40;3.20;;;27.30;49.50;;;;;;5069390;28;20012;-60
2023/09/24 10:50:13;;;;;;;5.70;3.25;;;27.30;49.50;;;;;;5072349;28;20502;-59
2023/09/24 10:52:59;;;;;;;8.77;3.47;;;27.20;49.30;;;;;;5073889;28;20636;-61
2023/09/24 10:55:33;;;;;;;8.43;3.03;;;27.10;49.50;;;;;;5075025;28;20058;-60
2023/09/24 10:58:13;;;;;;;12.63;3.30;;;26.90;49.60;;;;;;5078032;28;20040;-59
2023/09/24 11:00:43;;;;;;;12.93;3.47;;;26.70;50.20;;;;;;5068439;28;20039;-61
2023/09/24 11:03:13;;;;;;;11.85;3.40;;;26.60;50.70;;;;;;5067508;28;20090;-62
2023/09/24 11:05:47;;;;;;;5.75;3.28;;;26.70;51.20;;;;;;5069622;28;20396;-62
2023/09/24 11:08:16;;;;;;;9.43;3.53;;;26.60;50.70;;;;;;5064938;28;20109;-62
2023/09/24 11:10:47;;;;;;;8.27;3.72;;;26.60;50.30;;;;;;5071534;28;20139;-62
2023/09/24 11:13:14;;;;;;;10.95;3.00;;;26.70;50.30;;;;;;5065816;28;20053;-62
2023/09/24 11:15:41;;;;;;;8.23;3.33;;;26.70;50.00;;;;;;5067690;28;20078;-62
2023/09/24 11:18:13;;;;;;;5.00;2.97;;;26.60;50.00;;;;;;5069771;28;20039;-60
2023/09/24 11:20:48;;;;;;;8.60;3.65;;;26.50;50.00;;;;;;5069614;28;20044;-62
2023/09/24 11:23:15;;;;;;;6.53;3.30;;;26.30;49.70;;;;;;5070825;28;20540;-61
2023/09/24 11:25:47;;;;;;;13.45;3.75;;;26.40;49.50;;;;;;5068322;28;20048;-60
2023/09/24 11:28:14;;;;;;;6.15;3.28;;;26.30;49.20;;;;;;5063073;28;20055;-61
2023/09/24 11:30:49;;;;;;;6.28;3.03;;;26.30;49.10;;;;;;5072236;28;20609;-60
2023/09/24 11:33:21;;;;;;;7.00;3.28;;;26.20;49.40;;;;;;5068416;28;20405;-62
2023/09/24 11:35:48;;;;;;;9.63;2.88;;;26.20;49.40;;;;;;5067763;28;20088;-61
2023/09/24 11:38:27;;;;;;;10.02;3.53;;;26.20;49.50;;;;;;5068001;28;20523;-61
2023/09/24 11:40:53;;;;;;;7.85;2.95;;;26.10;49.40;;;;;;5064295;28;20143;-61
2023/09/24 11:43:20;;;;;;;7.22;3.13;;;26.10;49.10;;;;;;5066823;28;20059;-61
2023/09/24 11:45:53;;;;;;;6.82;3.40;;;26.00;49.30;;;;;;5066800;28;20154;-60
2023/09/24 11:48:27;;;;;;;8.77;3.20;;;26.00;49.10;;;;;;5068424;28;20102;-61
2023/09/24 11:50:56;;;;;;;12.43;3.38;;;26.00;49.60;;;;;;5068806;28;20044;-63
2023/09/24 11:53:25;;;;;;;7.25;3.42;;;25.90;50.00;;;;;;5064208;28;20045;-61
2023/09/24 11:55:57;;;;;;;7.13;3.13;;;25.90;49.80;;;;;;5066460;28;20123;-62
2023/09/24 11:58:27;;;;;;;7.28;2.92;;;25.90;49.90;;;;;;5064413;28;20497;-62
2023/09/24 12:00:56;;;;;;;6.70;3.22;;;25.90;49.90;;;;;;5064799;28;20066;-61
2023/09/24 12:03:23;;;;;;;5.10;3.00;;;25.80;50.10;;;;;;5070024;28;20554;-61
2023/09/24 12:05:51;;;;;;;11.40;3.17;;;25.70;50.90;;;;;;5066077;28;20049;-62
2023/09/24 12:08:17;;;;;;;12.55;3.40;;;25.60;49.80;;;;;;5067320;28;20577;-62
2023/09/24 12:10:50;;;;;;;8.15;3.17;;;25.60;49.20;;;;;;5069234;28;20053;-62
2023/09/24 12:13:18;;;;;;;10.07;2.95;;;25.60;49.10;;;;;;5064334;28;20069;-60
2023/09/24 12:15:45;;;;;;;10.73;3.28;;;25.60;49.00;;;;;;5064483;28;20053;-62
2023/09/24 12:18:12;;;;;;;7.70;2.83;;;25.60;48.80;;;;;;5070351;28;20040;-63
2023/09/24 12:20:41;;;;;;;17.25;3.45;;;25.50;48.80;;;;;;5065001;28;21587;-60
2023/09/24 12:23:09;;;;;;;17.92;3.22;;;25.40;48.80;;;;;;5062927;28;20047;-62
2023/09/24 12:25:40;;;;;;;13.05;3.13;;;25.40;48.60;;;;;;5066563;28;20073;-60
2023/09/24 12:28:08;;;;;;;12.05;3.00;;;25.40;48.50;;;;;;5063979;28;20099;-61
2023/09/24 12:30:38;;;;;;;6.97;3.30;;;25.20;48.90;;;;;;5064170;28;20534;-62
2023/09/24 12:33:05;;;;;;;6.32;2.90;;;25.20;48.90;;;;;;5068780;28;20705;-62
2023/09/24 12:35:32;;;;;;;10.05;2.95;;;25.20;49.30;;;;;;5064854;28;20151;-61
2023/09/24 12:37:58;;;;;;;7.13;3.03;;;25.10;49.50;;;;;;5070286;28;20411;-61
2023/09/24 12:40:25;;;;;;;9.70;3.22;;;25.20;49.00;;;;;;5071693;28;20091;-61
2023/09/24 12:42:52;;;;;;;8.38;3.38;;;25.20;48.80;;;;;;5049934;28;20045;-61
2023/09/24 12:45:19;;;;;;;10.27;3.10;;;25.20;48.20;;;;;;5065544;28;20043;-61
2023/09/24 12:47:46;;;;;;;8.07;3.00;;;25.10;48.80;;;;;;5067483;28;20040;-61
2023/09/24 12:50:13;;;;;;;6.93;3.00;;;25.10;47.90;;;;;;5065098;28;20050;-61
2023/09/24 12:52:44;;;;;;;8.05;2.90;;;25.10;47.20;;;;;;5064195;28;20388;-63